sensor_id;sensor_type;location;lat;lon;timestamp;P1;durP1;ratioP1;P2;durP2;ratioP2
36817;SDS011;22761;51.542;16.450;2023-11-19T00:00:27;27.90;;;17.90;;
36817;SDS011;22761;51.542;16.450;2023-11-19T00:03:15;29.20;;;17.60;;
36817;SDS011;22761;51.542;16.450;2023-11-19T00:05:44;27.10;;;16.80;;
36817;SDS011;22761;51.542;16.450;2023-11-19T00:08:16;25.30;;;16.10;;
36817;SDS011;22761;51.542;16.450;2023-11-19T00:10:44;24.40;;;15.40;;
36817;SDS011;22761;51.542;16.450;2023-11-19T00:13:12;23.20;;;15.60;;
36817;SDS011;22761;51.542;16.450;2023-11-19T00:15:40;25.60;;;15.90;;
36817;SDS011;22761;51.542;16.450;2023-11-19T00:18:08;23.80;;;15.60;;
36817;SDS011;22761;51.542;16.450;2023-11-19T00:20:37;24.80;;;15.40;;
36817;SDS011;22761;51.542;16.450;2023-11-19T00:23:05;25.90;;;15.60;;
36817;SDS011;22761;51.542;16.450;2023-11-19T00:25:33;23.30;;;14.10;;
36817;SDS011;22761;51.542;16.450;2023-11-19T00:28:01;22.60;;;13.90;;
36817;SDS011;22761;51.542;16.450;2023-11-19T00:30:30;25.40;;;15.30;;
36817;SDS011;22761;51.542;16.450;2023-11-19T00:33:00;26.90;;;15.80;;
36817;SDS011;22761;51.542;16.450;2023-11-19T00:35:28;27.40;;;15.90;;
36817;SDS011;22761;51.542;16.450;2023-11-19T00:37:56;25.10;;;16.30;;
36817;SDS011;22761;51.542;16.450;2023-11-19T00:40:25;24.10;;;15.40;;
36817;SDS011;22761;51.542;16.450;2023-11-19T00:42:54;27.80;;;16.50;;
36817;SDS011;22761;51.542;16.450;2023-11-19T00:45:22;25.30;;;16.00;;
36817;SDS011;22761;51.542;16.450;2023-11-19T00:47:51;25.00;;;15.10;;
36817;SDS011;22761;51.542;16.450;2023-11-19T00:50:19;23.40;;;15.10;;
36817;SDS011;22761;51.542;16.450;2023-11-19T00:52:47;23.30;;;15.20;;
36817;SDS011;22761;51.542;16.450;2023-11-19T00:55:15;23.60;;;15.50;;
36817;SDS011;22761;51.542;16.450;2023-11-19T00:57:44;22.90;;;14.60;;
36817;SDS011;22761;51.542;16.450;2023-11-19T01:00:12;21.70;;;14.30;;
36817;SDS011;22761;51.542;16.450;2023-11-19T01:02:48;17.60;;;11.90;;
36817;SDS011;22761;51.542;16.450;2023-11-19T01:05:20;18.70;;;13.00;;
36817;SDS011;22761;51.542;16.450;2023-11-19T01:07:52;19.80;;;13.20;;
36817;SDS011;22761;51.542;16.450;2023-11-19T01:10:23;21.10;;;12.30;;
36817;SDS011;22761;51.542;16.450;2023-11-19T01:12:52;21.30;;;13.80;;
36817;SDS011;22761;51.542;16.450;2023-11-19T01:15:21;18.20;;;12.70;;
36817;SDS011;22761;51.542;16.450;2023-11-19T01:17:51;18.90;;;13.10;;
36817;SDS011;22761;51.542;16.450;2023-11-19T01:20:20;21.00;;;13.70;;
36817;SDS011;22761;51.542;16.450;2023-11-19T01:22:50;20.30;;;13.70;;
36817;SDS011;22761;51.542;16.450;2023-11-19T01:25:19;20.20;;;13.70;;
36817;SDS011;22761;51.542;16.450;2023-11-19T01:27:47;19.90;;;12.70;;
36817;SDS011;22761;51.542;16.450;2023-11-19T01:30:15;20.80;;;13.50;;
36817;SDS011;22761;51.542;16.450;2023-11-19T01:32:44;21.90;;;14.10;;
36817;SDS011;22761;51.542;16.450;2023-11-19T01:35:12;21.00;;;13.40;;
36817;SDS011;22761;51.542;16.450;2023-11-19T01:37:41;21.20;;;14.30;;
36817;SDS011;22761;51.542;16.450;2023-11-19T01:40:09;19.40;;;13.20;;
36817;SDS011;22761;51.542;16.450;2023-11-19T01:42:40;23.60;;;14.30;;
36817;SDS011;22761;51.542;16.450;2023-11-19T01:45:09;19.20;;;13.70;;
36817;SDS011;22761;51.542;16.450;2023-11-19T01:47:38;23.00;;;14.30;;
36817;SDS011;22761;51.542;16.450;2023-11-19T01:50:07;22.00;;;14.60;;
36817;SDS011;22761;51.542;16.450;2023-11-19T01:52:36;21.40;;;13.30;;
36817;SDS011;22761;51.542;16.450;2023-11-19T01:55:06;22.90;;;14.60;;
36817;SDS011;22761;51.542;16.450;2023-11-19T01:57:36;24.30;;;14.70;;
36817;SDS011;22761;51.542;16.450;2023-11-19T02:00:07;24.30;;;14.40;;
36817;SDS011;22761;51.542;16.450;2023-11-19T02:02:40;23.80;;;15.40;;
36817;SDS011;22761;51.542;16.450;2023-11-19T02:05:10;25.00;;;16.00;;
36817;SDS011;22761;51.542;16.450;2023-11-19T02:07:39;25.70;;;15.70;;
36817;SDS011;22761;51.542;16.450;2023-11-19T02:10:08;26.70;;;16.10;;
36817;SDS011;22761;51.542;16.450;2023-11-19T02:12:42;25.20;;;15.50;;
36817;SDS011;22761;51.542;16.450;2023-11-19T02:15:11;25.40;;;16.60;;
36817;SDS011;22761;51.542;16.450;2023-11-19T02:17:39;26.80;;;16.10;;
36817;SDS011;22761;51.542;16.450;2023-11-19T02:20:08;27.70;;;16.60;;
36817;SDS011;22761;51.542;16.450;2023-11-19T02:22:40;24.10;;;16.10;;
36817;SDS011;22761;51.542;16.450;2023-11-19T02:25:30;24.30;;;16.00;;
36817;SDS011;22761;51.542;16.450;2023-11-19T02:27:58;28.40;;;17.20;;
36817;SDS011;22761;51.542;16.450;2023-11-19T02:30:27;25.80;;;16.50;;
36817;SDS011;22761;51.542;16.450;2023-11-19T02:32:57;27.60;;;17.30;;
36817;SDS011;22761;51.542;16.450;2023-11-19T02:35:33;28.20;;;16.80;;
36817;SDS011;22761;51.542;16.450;2023-11-19T02:38:02;26.20;;;16.60;;
36817;SDS011;22761;51.542;16.450;2023-11-19T02:40:34;26.40;;;15.80;;
36817;SDS011;22761;51.542;16.450;2023-11-19T02:43:03;28.80;;;17.80;;
36817;SDS011;22761;51.542;16.450;2023-11-19T02:45:33;26.50;;;16.40;;
36817;SDS011;22761;51.542;16.450;2023-11-19T02:48:01;24.50;;;16.00;;
36817;SDS011;22761;51.542;16.450;2023-11-19T02:50:30;28.30;;;16.70;;
36817;SDS011;22761;51.542;16.450;2023-11-19T02:52:59;28.00;;;17.30;;
36817;SDS011;22761;51.542;16.450;2023-11-19T02:55:27;23.90;;;16.20;;
36817;SDS011;22761;51.542;16.450;2023-11-19T02:57:58;26.30;;;17.40;;
36817;SDS011;22761;51.542;16.450;2023-11-19T03:00:28;31.10;;;16.60;;
36817;SDS011;22761;51.542;16.450;2023-11-19T03:03:10;27.70;;;16.70;;
36817;SDS011;22761;51.542;16.450;2023-11-19T03:05:47;26.80;;;16.10;;
36817;SDS011;22761;51.542;16.450;2023-11-19T03:08:15;28.20;;;16.60;;
36817;SDS011;22761;51.542;16.450;2023-11-19T03:10:47;27.50;;;17.20;;
36817;SDS011;22761;51.542;16.450;2023-11-19T03:13:15;26.00;;;16.70;;
36817;SDS011;22761;51.542;16.450;2023-11-19T03:15:45;28.20;;;16.30;;
36817;SDS011;22761;51.542;16.450;2023-11-19T03:18:14;25.50;;;16.50;;
36817;SDS011;22761;51.542;16.450;2023-11-19T03:20:42;27.70;;;16.70;;
36817;SDS011;22761;51.542;16.450;2023-11-19T03:23:10;28.60;;;17.30;;
36817;SDS011;22761;51.542;16.450;2023-11-19T03:25:38;28.10;;;16.70;;
36817;SDS011;22761;51.542;16.450;2023-11-19T03:28:07;27.40;;;17.30;;
36817;SDS011;22761;51.542;16.450;2023-11-19T03:30:35;28.90;;;17.20;;
36817;SDS011;22761;51.542;16.450;2023-11-19T03:33:03;29.20;;;17.50;;
36817;SDS011;22761;51.542;16.450;2023-11-19T03:35:31;25.20;;;16.00;;
36817;SDS011;22761;51.542;16.450;2023-11-19T03:38:01;29.30;;;16.80;;
36817;SDS011;22761;51.542;16.450;2023-11-19T03:40:30;24.60;;;15.70;;
36817;SDS011;22761;51.542;16.450;2023-11-19T03:42:58;30.40;;;16.60;;
36817;SDS011;22761;51.542;16.450;2023-11-19T03:45:26;26.20;;;16.20;;
36817;SDS011;22761;51.542;16.450;2023-11-19T03:47:55;26.50;;;16.90;;
36817;SDS011;22761;51.542;16.450;2023-11-19T03:50:23;27.00;;;16.50;;
36817;SDS011;22761;51.542;16.450;2023-11-19T03:52:52;22.70;;;15.00;;
36817;SDS011;22761;51.542;16.450;2023-11-19T03:55:20;24.10;;;15.60;;
36817;SDS011;22761;51.542;16.450;2023-11-19T03:57:49;24.90;;;15.10;;
36817;SDS011;22761;51.542;16.450;2023-11-19T04:00:17;22.50;;;14.90;;
36817;SDS011;22761;51.542;16.450;2023-11-19T04:02:46;24.00;;;15.10;;
36817;SDS011;22761;51.542;16.450;2023-11-19T04:05:15;22.70;;;14.70;;
36817;SDS011;22761;51.542;16.450;2023-11-19T04:07:43;22.70;;;15.00;;
36817;SDS011;22761;51.542;16.450;2023-11-19T04:10:12;22.60;;;14.90;;
36817;SDS011;22761;51.542;16.450;2023-11-19T04:12:40;25.20;;;15.20;;
36817;SDS011;22761;51.542;16.450;2023-11-19T04:15:09;25.10;;;14.90;;
36817;SDS011;22761;51.542;16.450;2023-11-19T04:17:37;24.90;;;14.90;;
36817;SDS011;22761;51.542;16.450;2023-11-19T04:20:06;22.40;;;14.40;;
36817;SDS011;22761;51.542;16.450;2023-11-19T04:22:39;23.10;;;14.40;;
36817;SDS011;22761;51.542;16.450;2023-11-19T04:25:07;24.90;;;14.70;;
36817;SDS011;22761;51.542;16.450;2023-11-19T04:27:36;21.00;;;13.80;;
36817;SDS011;22761;51.542;16.450;2023-11-19T04:30:05;23.30;;;14.80;;
36817;SDS011;22761;51.542;16.450;2023-11-19T04:32:34;21.40;;;14.70;;
36817;SDS011;22761;51.542;16.450;2023-11-19T04:35:02;21.40;;;13.50;;
36817;SDS011;22761;51.542;16.450;2023-11-19T04:37:31;24.10;;;14.80;;
36817;SDS011;22761;51.542;16.450;2023-11-19T04:39:59;22.50;;;13.80;;
36817;SDS011;22761;51.542;16.450;2023-11-19T04:42:28;24.10;;;15.20;;
36817;SDS011;22761;51.542;16.450;2023-11-19T04:44:57;21.10;;;13.80;;
36817;SDS011;22761;51.542;16.450;2023-11-19T04:47:25;25.40;;;14.30;;
36817;SDS011;22761;51.542;16.450;2023-11-19T04:49:54;22.20;;;13.40;;
36817;SDS011;22761;51.542;16.450;2023-11-19T04:52:22;24.60;;;14.30;;
36817;SDS011;22761;51.542;16.450;2023-11-19T04:54:50;22.60;;;14.10;;
36817;SDS011;22761;51.542;16.450;2023-11-19T04:57:18;24.70;;;15.40;;
36817;SDS011;22761;51.542;16.450;2023-11-19T04:59:47;23.60;;;14.10;;
36817;SDS011;22761;51.542;16.450;2023-11-19T05:02:15;21.00;;;14.00;;
36817;SDS011;22761;51.542;16.450;2023-11-19T05:04:43;23.00;;;14.60;;
36817;SDS011;22761;51.542;16.450;2023-11-19T05:07:17;21.60;;;14.40;;
36817;SDS011;22761;51.542;16.450;2023-11-19T05:09:45;21.40;;;13.50;;
36817;SDS011;22761;51.542;16.450;2023-11-19T05:12:13;21.40;;;13.40;;
36817;SDS011;22761;51.542;16.450;2023-11-19T05:14:42;22.30;;;14.10;;
36817;SDS011;22761;51.542;16.450;2023-11-19T05:17:17;22.70;;;13.10;;
36817;SDS011;22761;51.542;16.450;2023-11-19T05:19:46;23.80;;;14.10;;
36817;SDS011;22761;51.542;16.450;2023-11-19T05:22:16;21.20;;;13.20;;
36817;SDS011;22761;51.542;16.450;2023-11-19T05:24:44;22.40;;;13.50;;
36817;SDS011;22761;51.542;16.450;2023-11-19T05:27:13;23.50;;;14.10;;
36817;SDS011;22761;51.542;16.450;2023-11-19T05:29:41;21.60;;;13.60;;
36817;SDS011;22761;51.542;16.450;2023-11-19T05:32:10;21.80;;;14.00;;
36817;SDS011;22761;51.542;16.450;2023-11-19T05:34:39;18.80;;;12.60;;
36817;SDS011;22761;51.542;16.450;2023-11-19T05:37:10;23.40;;;12.90;;
36817;SDS011;22761;51.542;16.450;2023-11-19T05:39:39;20.20;;;13.00;;
36817;SDS011;22761;51.542;16.450;2023-11-19T05:42:07;21.20;;;12.50;;
36817;SDS011;22761;51.542;16.450;2023-11-19T05:44:35;18.70;;;13.10;;
36817;SDS011;22761;51.542;16.450;2023-11-19T05:47:07;20.10;;;12.50;;
36817;SDS011;22761;51.542;16.450;2023-11-19T05:49:36;20.60;;;13.40;;
36817;SDS011;22761;51.542;16.450;2023-11-19T05:52:04;20.70;;;11.90;;
36817;SDS011;22761;51.542;16.450;2023-11-19T05:54:35;22.40;;;12.30;;
36817;SDS011;22761;51.542;16.450;2023-11-19T05:57:06;22.10;;;12.60;;
36817;SDS011;22761;51.542;16.450;2023-11-19T05:59:37;21.50;;;12.80;;
36817;SDS011;22761;51.542;16.450;2023-11-19T06:02:05;19.20;;;12.90;;
36817;SDS011;22761;51.542;16.450;2023-11-19T06:04:34;21.50;;;13.20;;
36817;SDS011;22761;51.542;16.450;2023-11-19T06:07:02;21.90;;;12.90;;
36817;SDS011;22761;51.542;16.450;2023-11-19T06:09:31;21.00;;;12.50;;
36817;SDS011;22761;51.542;16.450;2023-11-19T06:12:01;18.20;;;11.30;;
36817;SDS011;22761;51.542;16.450;2023-11-19T06:14:30;20.30;;;12.80;;
36817;SDS011;22761;51.542;16.450;2023-11-19T06:16:58;19.60;;;11.80;;
36817;SDS011;22761;51.542;16.450;2023-11-19T06:19:27;20.00;;;12.50;;
36817;SDS011;22761;51.542;16.450;2023-11-19T06:24:26;18.90;;;11.90;;
36817;SDS011;22761;51.542;16.450;2023-11-19T06:26:54;17.30;;;10.90;;
36817;SDS011;22761;51.542;16.450;2023-11-19T06:29:22;15.00;;;9.90;;
36817;SDS011;22761;51.542;16.450;2023-11-19T06:31:50;16.70;;;10.50;;
36817;SDS011;22761;51.542;16.450;2023-11-19T06:34:19;16.80;;;10.30;;
36817;SDS011;22761;51.542;16.450;2023-11-19T06:36:47;18.30;;;10.50;;
36817;SDS011;22761;51.542;16.450;2023-11-19T06:39:16;14.60;;;10.30;;
36817;SDS011;22761;51.542;16.450;2023-11-19T06:41:46;16.70;;;10.70;;
36817;SDS011;22761;51.542;16.450;2023-11-19T06:44:14;14.70;;;9.20;;
36817;SDS011;22761;51.542;16.450;2023-11-19T06:46:42;15.40;;;9.70;;
36817;SDS011;22761;51.542;16.450;2023-11-19T06:49:11;17.30;;;9.60;;
36817;SDS011;22761;51.542;16.450;2023-11-19T06:51:42;16.70;;;10.10;;
36817;SDS011;22761;51.542;16.450;2023-11-19T06:54:12;15.20;;;9.60;;
36817;SDS011;22761;51.542;16.450;2023-11-19T06:56:40;15.00;;;10.10;;
36817;SDS011;22761;51.542;16.450;2023-11-19T06:59:09;18.80;;;11.30;;
36817;SDS011;22761;51.542;16.450;2023-11-19T07:01:37;14.40;;;9.50;;
36817;SDS011;22761;51.542;16.450;2023-11-19T07:04:06;15.70;;;10.60;;
36817;SDS011;22761;51.542;16.450;2023-11-19T07:06:37;15.40;;;9.50;;
36817;SDS011;22761;51.542;16.450;2023-11-19T07:09:06;17.90;;;9.80;;
36817;SDS011;22761;51.542;16.450;2023-11-19T07:11:39;14.80;;;9.70;;
36817;SDS011;22761;51.542;16.450;2023-11-19T07:14:07;14.80;;;9.60;;
36817;SDS011;22761;51.542;16.450;2023-11-19T07:16:36;14.90;;;9.90;;
36817;SDS011;22761;51.542;16.450;2023-11-19T07:19:05;14.30;;;9.60;;
36817;SDS011;22761;51.542;16.450;2023-11-19T07:21:34;18.60;;;11.00;;
36817;SDS011;22761;51.542;16.450;2023-11-19T07:24:03;16.80;;;10.70;;
36817;SDS011;22761;51.542;16.450;2023-11-19T07:26:31;13.90;;;9.50;;
36817;SDS011;22761;51.542;16.450;2023-11-19T07:28:59;13.80;;;9.00;;
36817;SDS011;22761;51.542;16.450;2023-11-19T07:31:29;15.70;;;9.40;;
36817;SDS011;22761;51.542;16.450;2023-11-19T07:33:57;14.30;;;9.90;;
36817;SDS011;22761;51.542;16.450;2023-11-19T07:36:25;16.90;;;10.70;;
36817;SDS011;22761;51.542;16.450;2023-11-19T07:38:53;18.10;;;11.40;;
36817;SDS011;22761;51.542;16.450;2023-11-19T07:41:25;17.00;;;11.00;;
36817;SDS011;22761;51.542;16.450;2023-11-19T07:43:54;15.20;;;9.60;;
36817;SDS011;22761;51.542;16.450;2023-11-19T07:46:22;14.50;;;9.80;;
36817;SDS011;22761;51.542;16.450;2023-11-19T07:48:51;18.50;;;11.40;;
36817;SDS011;22761;51.542;16.450;2023-11-19T07:51:20;17.20;;;10.20;;
36817;SDS011;22761;51.542;16.450;2023-11-19T07:53:49;14.00;;;9.90;;
36817;SDS011;22761;51.542;16.450;2023-11-19T07:56:17;17.10;;;9.80;;
36817;SDS011;22761;51.542;16.450;2023-11-19T07:58:45;15.90;;;11.60;;
36817;SDS011;22761;51.542;16.450;2023-11-19T08:01:15;14.60;;;10.40;;
36817;SDS011;22761;51.542;16.450;2023-11-19T08:03:43;19.10;;;11.90;;
36817;SDS011;22761;51.542;16.450;2023-11-19T08:06:26;15.40;;;10.70;;
36817;SDS011;22761;51.542;16.450;2023-11-19T08:08:54;16.70;;;11.40;;
36817;SDS011;22761;51.542;16.450;2023-11-19T08:11:22;16.30;;;10.60;;
36817;SDS011;22761;51.542;16.450;2023-11-19T08:13:51;24.70;;;13.80;;
36817;SDS011;22761;51.542;16.450;2023-11-19T08:16:19;19.90;;;11.10;;
36817;SDS011;22761;51.542;16.450;2023-11-19T08:18:47;25.80;;;15.20;;
36817;SDS011;22761;51.542;16.450;2023-11-19T08:21:15;18.40;;;10.40;;
36817;SDS011;22761;51.542;16.450;2023-11-19T08:23:44;18.20;;;10.70;;
36817;SDS011;22761;51.542;16.450;2023-11-19T08:26:14;15.70;;;9.60;;
36817;SDS011;22761;51.542;16.450;2023-11-19T08:28:46;15.00;;;10.40;;
36817;SDS011;22761;51.542;16.450;2023-11-19T08:31:14;13.60;;;9.60;;
36817;SDS011;22761;51.542;16.450;2023-11-19T08:33:42;13.10;;;9.10;;
36817;SDS011;22761;51.542;16.450;2023-11-19T08:36:16;14.30;;;8.90;;
36817;SDS011;22761;51.542;16.450;2023-11-19T08:38:45;13.00;;;9.20;;
36817;SDS011;22761;51.542;16.450;2023-11-19T08:41:14;13.30;;;8.30;;
36817;SDS011;22761;51.542;16.450;2023-11-19T08:43:46;14.20;;;9.20;;
36817;SDS011;22761;51.542;16.450;2023-11-19T08:46:14;17.60;;;10.20;;
36817;SDS011;22761;51.542;16.450;2023-11-19T08:48:42;21.50;;;12.30;;
36817;SDS011;22761;51.542;16.450;2023-11-19T08:51:10;16.00;;;9.90;;
36817;SDS011;22761;51.542;16.450;2023-11-19T08:53:38;12.60;;;9.10;;
36817;SDS011;22761;51.542;16.450;2023-11-19T08:56:07;16.40;;;11.00;;
36817;SDS011;22761;51.542;16.450;2023-11-19T08:58:35;17.50;;;11.90;;
36817;SDS011;22761;51.542;16.450;2023-11-19T09:01:04;16.10;;;10.90;;
36817;SDS011;22761;51.542;16.450;2023-11-19T09:03:33;13.80;;;9.70;;
36817;SDS011;22761;51.542;16.450;2023-11-19T09:06:01;11.90;;;8.70;;
36817;SDS011;22761;51.542;16.450;2023-11-19T09:08:30;11.20;;;8.50;;
36817;SDS011;22761;51.542;16.450;2023-11-19T09:10:58;13.00;;;8.50;;
36817;SDS011;22761;51.542;16.450;2023-11-19T09:13:27;12.60;;;9.30;;
36817;SDS011;22761;51.542;16.450;2023-11-19T09:15:55;14.30;;;8.20;;
36817;SDS011;22761;51.542;16.450;2023-11-19T09:18:27;11.80;;;7.90;;
36817;SDS011;22761;51.542;16.450;2023-11-19T09:20:55;10.80;;;7.50;;
36817;SDS011;22761;51.542;16.450;2023-11-19T09:23:23;8.80;;;6.10;;
36817;SDS011;22761;51.542;16.450;2023-11-19T09:25:57;9.80;;;6.70;;
36817;SDS011;22761;51.542;16.450;2023-11-19T09:28:25;9.80;;;7.20;;
36817;SDS011;22761;51.542;16.450;2023-11-19T09:30:53;9.10;;;7.20;;
36817;SDS011;22761;51.542;16.450;2023-11-19T09:33:21;10.20;;;6.90;;
36817;SDS011;22761;51.542;16.450;2023-11-19T09:35:50;14.60;;;9.40;;
36817;SDS011;22761;51.542;16.450;2023-11-19T09:38:18;15.90;;;9.40;;
36817;SDS011;22761;51.542;16.450;2023-11-19T09:40:46;9.30;;;6.40;;
36817;SDS011;22761;51.542;16.450;2023-11-19T09:43:15;10.60;;;7.00;;
36817;SDS011;22761;51.542;16.450;2023-11-19T09:45:47;9.40;;;6.50;;
36817;SDS011;22761;51.542;16.450;2023-11-19T09:48:18;11.50;;;7.00;;
36817;SDS011;22761;51.542;16.450;2023-11-19T09:50:46;9.40;;;7.00;;
36817;SDS011;22761;51.542;16.450;2023-11-19T09:53:15;21.90;;;13.70;;
36817;SDS011;22761;51.542;16.450;2023-11-19T09:55:43;86.20;;;37.20;;
36817;SDS011;22761;51.542;16.450;2023-11-19T09:58:13;69.80;;;36.60;;
36817;SDS011;22761;51.542;16.450;2023-11-19T10:00:43;83.20;;;39.20;;
36817;SDS011;22761;51.542;16.450;2023-11-19T10:03:19;109.20;;;52.50;;
36817;SDS011;22761;51.542;16.450;2023-11-19T10:05:49;80.60;;;39.70;;
36817;SDS011;22761;51.542;16.450;2023-11-19T10:08:17;60.80;;;28.50;;
36817;SDS011;22761;51.542;16.450;2023-11-19T10:10:46;35.60;;;12.10;;
36817;SDS011;22761;51.542;16.450;2023-11-19T10:13:15;44.20;;;15.30;;
36817;SDS011;22761;51.542;16.450;2023-11-19T10:15:43;18.40;;;11.40;;
36817;SDS011;22761;51.542;16.450;2023-11-19T10:18:13;21.30;;;11.10;;
36817;SDS011;22761;51.542;16.450;2023-11-19T10:20:42;20.20;;;8.50;;
36817;SDS011;22761;51.542;16.450;2023-11-19T10:23:11;19.10;;;8.90;;
36817;SDS011;22761;51.542;16.450;2023-11-19T10:25:40;9.90;;;6.40;;
36817;SDS011;22761;51.542;16.450;2023-11-19T10:28:08;16.30;;;10.50;;
36817;SDS011;22761;51.542;16.450;2023-11-19T10:30:36;10.40;;;7.60;;
36817;SDS011;22761;51.542;16.450;2023-11-19T10:33:08;10.20;;;6.80;;
36817;SDS011;22761;51.542;16.450;2023-11-19T10:35:56;11.30;;;6.60;;
36817;SDS011;22761;51.542;16.450;2023-11-19T10:38:28;9.60;;;5.70;;
36817;SDS011;22761;51.542;16.450;2023-11-19T10:40:57;13.80;;;6.80;;
36817;SDS011;22761;51.542;16.450;2023-11-19T10:43:25;16.30;;;7.70;;
36817;SDS011;22761;51.542;16.450;2023-11-19T10:45:53;12.20;;;6.80;;
36817;SDS011;22761;51.542;16.450;2023-11-19T10:48:22;14.50;;;6.80;;
36817;SDS011;22761;51.542;16.450;2023-11-19T10:50:53;8.20;;;5.00;;
36817;SDS011;22761;51.542;16.450;2023-11-19T10:53:23;7.20;;;4.80;;
36817;SDS011;22761;51.542;16.450;2023-11-19T10:55:54;12.90;;;7.70;;
36817;SDS011;22761;51.542;16.450;2023-11-19T10:58:23;9.70;;;6.80;;
36817;SDS011;22761;51.542;16.450;2023-11-19T11:00:56;12.60;;;6.20;;
36817;SDS011;22761;51.542;16.450;2023-11-19T11:03:27;19.80;;;8.10;;
36817;SDS011;22761;51.542;16.450;2023-11-19T11:05:58;13.30;;;7.10;;
36817;SDS011;22761;51.542;16.450;2023-11-19T11:08:27;23.00;;;13.20;;
36817;SDS011;22761;51.542;16.450;2023-11-19T11:10:55;14.70;;;7.30;;
36817;SDS011;22761;51.542;16.450;2023-11-19T11:13:26;42.00;;;14.00;;
36817;SDS011;22761;51.542;16.450;2023-11-19T11:15:57;28.00;;;10.20;;
36817;SDS011;22761;51.542;16.450;2023-11-19T11:18:26;16.10;;;7.20;;
36817;SDS011;22761;51.542;16.450;2023-11-19T11:21:12;32.50;;;15.00;;
36817;SDS011;22761;51.542;16.450;2023-11-19T11:29:26;20.20;;;7.30;;
36817;SDS011;22761;51.542;16.450;2023-11-19T11:34:57;6.60;;;3.50;;
36817;SDS011;22761;51.542;16.450;2023-11-19T11:37:39;10.30;;;5.40;;
36817;SDS011;22761;51.542;16.450;2023-11-19T11:40:30;6.30;;;3.30;;
36817;SDS011;22761;51.542;16.450;2023-11-19T11:42:59;10.10;;;6.90;;
36817;SDS011;22761;51.542;16.450;2023-11-19T11:45:39;6.70;;;4.40;;
36817;SDS011;22761;51.542;16.450;2023-11-19T11:48:12;9.80;;;6.30;;
36817;SDS011;22761;51.542;16.450;2023-11-19T11:50:50;5.70;;;3.50;;
36817;SDS011;22761;51.542;16.450;2023-11-19T11:53:20;6.80;;;3.60;;
36817;SDS011;22761;51.542;16.450;2023-11-19T11:58:20;5.90;;;4.20;;
36817;SDS011;22761;51.542;16.450;2023-11-19T12:00:48;4.60;;;3.60;;
36817;SDS011;22761;51.542;16.450;2023-11-19T12:03:21;8.30;;;3.90;;
36817;SDS011;22761;51.542;16.450;2023-11-19T12:05:50;5.80;;;3.60;;
36817;SDS011;22761;51.542;16.450;2023-11-19T12:08:19;5.30;;;3.20;;
36817;SDS011;22761;51.542;16.450;2023-11-19T12:10:54;5.40;;;3.30;;
36817;SDS011;22761;51.542;16.450;2023-11-19T12:13:42;4.40;;;3.00;;
36817;SDS011;22761;51.542;16.450;2023-11-19T12:16:15;4.10;;;3.00;;
36817;SDS011;22761;51.542;16.450;2023-11-19T12:18:44;5.50;;;3.10;;
36817;SDS011;22761;51.542;16.450;2023-11-19T12:21:26;4.40;;;3.20;;
36817;SDS011;22761;51.542;16.450;2023-11-19T12:23:59;5.70;;;3.30;;
36817;SDS011;22761;51.542;16.450;2023-11-19T12:26:33;4.90;;;3.10;;
36817;SDS011;22761;51.542;16.450;2023-11-19T12:29:02;7.90;;;4.30;;
36817;SDS011;22761;51.542;16.450;2023-11-19T12:31:36;6.80;;;4.50;;
36817;SDS011;22761;51.542;16.450;2023-11-19T12:34:06;6.00;;;3.40;;
36817;SDS011;22761;51.542;16.450;2023-11-19T12:36:35;7.70;;;4.00;;
36817;SDS011;22761;51.542;16.450;2023-11-19T12:39:04;5.20;;;3.10;;
36817;SDS011;22761;51.542;16.450;2023-11-19T12:41:48;8.40;;;5.10;;
36817;SDS011;22761;51.542;16.450;2023-11-19T12:44:16;4.70;;;2.90;;
36817;SDS011;22761;51.542;16.450;2023-11-19T12:46:44;4.10;;;2.80;;
36817;SDS011;22761;51.542;16.450;2023-11-19T12:49:13;5.50;;;3.00;;
36817;SDS011;22761;51.542;16.450;2023-11-19T12:51:41;6.80;;;3.40;;
36817;SDS011;22761;51.542;16.450;2023-11-19T12:54:10;10.40;;;3.00;;
36817;SDS011;22761;51.542;16.450;2023-11-19T12:56:38;5.60;;;3.40;;
36817;SDS011;22761;51.542;16.450;2023-11-19T12:59:12;5.50;;;3.30;;
36817;SDS011;22761;51.542;16.450;2023-11-19T13:01:40;5.20;;;3.00;;
36817;SDS011;22761;51.542;16.450;2023-11-19T13:04:17;5.40;;;3.20;;
36817;SDS011;22761;51.542;16.450;2023-11-19T13:06:46;6.10;;;3.30;;
36817;SDS011;22761;51.542;16.450;2023-11-19T13:09:23;5.30;;;3.40;;
36817;SDS011;22761;51.542;16.450;2023-11-19T13:11:53;7.90;;;3.80;;
36817;SDS011;22761;51.542;16.450;2023-11-19T13:14:22;6.20;;;3.40;;
36817;SDS011;22761;51.542;16.450;2023-11-19T13:16:51;6.60;;;3.80;;
36817;SDS011;22761;51.542;16.450;2023-11-19T13:19:21;6.50;;;3.80;;
36817;SDS011;22761;51.542;16.450;2023-11-19T13:21:52;6.20;;;4.00;;
36817;SDS011;22761;51.542;16.450;2023-11-19T13:24:20;7.30;;;4.40;;
36817;SDS011;22761;51.542;16.450;2023-11-19T13:26:48;8.20;;;5.70;;
36817;SDS011;22761;51.542;16.450;2023-11-19T13:29:16;6.60;;;4.70;;
36817;SDS011;22761;51.542;16.450;2023-11-19T13:31:44;9.20;;;6.20;;
36817;SDS011;22761;51.542;16.450;2023-11-19T13:34:12;14.80;;;10.40;;
36817;SDS011;22761;51.542;16.450;2023-11-19T13:36:40;10.60;;;6.70;;
36817;SDS011;22761;51.542;16.450;2023-11-19T13:39:10;17.60;;;10.80;;
36817;SDS011;22761;51.542;16.450;2023-11-19T13:41:40;24.50;;;14.10;;
36817;SDS011;22761;51.542;16.450;2023-11-19T13:44:08;16.30;;;9.60;;
36817;SDS011;22761;51.542;16.450;2023-11-19T13:46:36;11.90;;;7.30;;
36817;SDS011;22761;51.542;16.450;2023-11-19T13:49:05;6.30;;;4.30;;
36817;SDS011;22761;51.542;16.450;2023-11-19T13:51:33;7.40;;;4.10;;
36817;SDS011;22761;51.542;16.450;2023-11-19T13:54:02;5.90;;;4.40;;
36817;SDS011;22761;51.542;16.450;2023-11-19T13:56:30;5.60;;;3.30;;
36817;SDS011;22761;51.542;16.450;2023-11-19T13:58:58;6.30;;;3.60;;
36817;SDS011;22761;51.542;16.450;2023-11-19T14:01:26;6.30;;;4.00;;
36817;SDS011;22761;51.542;16.450;2023-11-19T14:03:54;8.00;;;4.20;;
36817;SDS011;22761;51.542;16.450;2023-11-19T14:06:22;8.00;;;4.00;;
36817;SDS011;22761;51.542;16.450;2023-11-19T14:08:51;8.20;;;4.30;;
36817;SDS011;22761;51.542;16.450;2023-11-19T14:11:19;8.00;;;3.90;;
36817;SDS011;22761;51.542;16.450;2023-11-19T14:13:47;7.00;;;3.90;;
36817;SDS011;22761;51.542;16.450;2023-11-19T14:16:17;6.80;;;3.70;;
36817;SDS011;22761;51.542;16.450;2023-11-19T14:18:45;5.90;;;3.50;;
36817;SDS011;22761;51.542;16.450;2023-11-19T14:21:14;7.60;;;3.90;;
36817;SDS011;22761;51.542;16.450;2023-11-19T14:23:42;8.00;;;3.10;;
36817;SDS011;22761;51.542;16.450;2023-11-19T14:26:10;7.40;;;3.20;;
36817;SDS011;22761;51.542;16.450;2023-11-19T14:28:39;7.50;;;2.90;;
36817;SDS011;22761;51.542;16.450;2023-11-19T14:31:22;7.00;;;3.70;;
36817;SDS011;22761;51.542;16.450;2023-11-19T14:33:50;6.50;;;3.30;;
36817;SDS011;22761;51.542;16.450;2023-11-19T14:36:20;6.50;;;2.80;;
36817;SDS011;22761;51.542;16.450;2023-11-19T14:38:48;6.50;;;3.20;;
36817;SDS011;22761;51.542;16.450;2023-11-19T14:41:16;5.10;;;2.30;;
36817;SDS011;22761;51.542;16.450;2023-11-19T14:43:44;7.80;;;2.50;;